createdAt,value
2023-03-01T00:00:15.217Z,37.97
2023-03-01T00:02:20.182Z,40.13
2023-03-01T00:04:25.099Z,46.33
2023-03-01T00:06:31.700Z,44.95
2023-03-01T00:08:37.594Z,45.83
2023-03-01T00:10:44.063Z,47.75
2023-03-01T00:12:49.005Z,43.40
2023-03-01T00:14:54.488Z,39.95
2023-03-01T00:17:03.092Z,40.53
2023-03-01T00:19:09.025Z,38.78
2023-03-01T00:21:14.042Z,43.45
2023-03-01T00:23:22.556Z,39.35
2023-03-01T00:25:27.511Z,41.35
2023-03-01T00:27:33.084Z,41.33
2023-03-01T00:29:38.043Z,42.03
2023-03-01T00:31:43.240Z,47.92
2023-03-01T00:33:51.543Z,41.22
2023-03-01T00:35:56.461Z,41.90
2023-03-01T00:38:01.906Z,39.03
2023-03-01T00:40:09.079Z,43.20
2023-03-01T00:42:14.966Z,38.78
2023-03-01T00:44:20.411Z,43.15
2023-03-01T00:46:31.374Z,39.38
2023-03-01T00:48:37.962Z,38.22
2023-03-01T00:50:45.667Z,37.38
2023-03-01T00:52:50.729Z,39.80
2023-03-01T00:54:57.124Z,39.88
2023-03-01T00:57:02.851Z,41.42
2023-03-01T00:59:08.535Z,41.00
2023-03-01T01:01:20.900Z,43.33
2023-03-01T01:03:27.369Z,38.92
2023-03-01T01:05:33.138Z,37.22
2023-03-01T01:07:40.801Z,40.75
2023-03-01T01:09:45.730Z,43.40
2023-03-01T01:11:54.146Z,37.92
2023-03-01T01:14:01.033Z,45.75
2023-03-01T01:16:09.380Z,48.30
2023-03-01T01:18:15.095Z,40.40
2023-03-01T01:20:20.845Z,37.03
2023-03-01T01:22:26.099Z,43.38
2023-03-01T01:24:33.620Z,45.85
2023-03-01T01:26:39.031Z,42.95
2023-03-01T01:28:44.887Z,40.00
2023-03-01T01:30:49.850Z,36.92
2023-03-01T01:32:55.148Z,38.08
2023-03-01T01:35:00.442Z,38.30
2023-03-01T01:37:08.803Z,37.35
2023-03-01T01:39:14.672Z,36.38
2023-03-01T01:41:24.440Z,41.10
2023-03-01T01:43:32.582Z,38.25
2023-03-01T01:45:40.231Z,41.75
2023-03-01T01:47:49.624Z,37.55
2023-03-01T01:49:58.245Z,40.50
2023-03-01T01:52:14.516Z,37.25
2023-03-01T01:54:24.985Z,42.05
2023-03-01T01:56:33.699Z,42.53
2023-03-01T01:58:39.726Z,41.17
2023-03-01T02:00:44.719Z,41.58
2023-03-01T02:02:56.184Z,36.40
2023-03-01T02:05:14.376Z,36.95
2023-03-01T02:07:25.027Z,34.97
2023-03-01T02:09:31.748Z,41.30
2023-03-01T02:11:40.665Z,44.13
2023-03-01T02:13:46.413Z,37.10
2023-03-01T02:15:51.775Z,46.03
2023-03-01T02:17:58.663Z,39.83
2023-03-01T02:20:17.683Z,42.20
2023-03-01T02:22:29.016Z,40.85
2023-03-01T02:24:45.439Z,41.22
2023-03-01T02:26:56.491Z,43.90
2023-03-01T02:29:04.312Z,39.42
2023-03-01T02:31:24.973Z,41.80
2023-03-01T02:33:34.211Z,41.60
2023-03-01T02:35:42.490Z,40.88
2023-03-01T02:37:48.620Z,43.67
2023-03-01T02:40:02.175Z,43.10
2023-03-01T02:42:10.143Z,40.58
2023-03-01T02:44:17.876Z,36.95
2023-03-01T02:46:26.306Z,34.78
2023-03-01T02:48:31.263Z,39.65
2023-03-01T02:51:01.226Z,39.05
2023-03-01T02:53:11.873Z,39.28
2023-03-01T02:55:21.177Z,40.63
2023-03-01T02:57:28.970Z,35.50
2023-03-01T02:59:40.821Z,37.42
2023-03-01T03:01:47.518Z,38.13
2023-03-01T03:03:53.203Z,38.45
2023-03-01T03:05:58.688Z,39.35
2023-03-01T03:08:06.686Z,38.28
2023-03-01T03:10:21.183Z,35.50
2023-03-01T03:12:26.781Z,42.50
2023-03-01T03:14:36.282Z,35.38
2023-03-01T03:16:45.094Z,39.83
2023-03-01T03:18:51.737Z,40.38
2023-03-01T03:20:57.935Z,42.30
2023-03-01T03:23:02.976Z,39.55
2023-03-01T03:25:11.369Z,42.50
2023-03-01T03:27:16.993Z,39.00
2023-03-01T03:29:21.887Z,40.10
2023-03-01T03:31:28.270Z,37.80
2023-03-01T03:33:36.052Z,38.13
2023-03-01T03:35:45.449Z,43.05
2023-03-01T03:38:07.227Z,40.63
2023-03-01T03:40:16.541Z,43.85
2023-03-01T03:42:21.754Z,40.65
2023-03-01T03:44:26.821Z,43.47
2023-03-01T03:46:32.060Z,44.47
2023-03-01T03:48:42.487Z,44.65
2023-03-01T03:50:53.016Z,37.22
2023-03-01T03:52:58.973Z,38.53
2023-03-01T03:55:10.539Z,38.15
2023-03-01T03:57:15.927Z,43.80
2023-03-01T03:59:20.857Z,45.42
2023-03-01T04:01:26.280Z,46.17
2023-03-01T04:03:33.429Z,43.05
2023-03-01T04:05:42.683Z,46.80
2023-03-01T04:07:49.825Z,42.35
2023-03-01T04:09:54.709Z,38.80
2023-03-01T04:12:02.312Z,35.05
2023-03-01T04:14:08.002Z,39.28
2023-03-01T04:16:12.900Z,37.13
2023-03-01T04:18:20.137Z,37.35
2023-03-01T04:20:29.248Z,39.97
2023-03-01T04:22:37.188Z,38.25
2023-03-01T04:24:42.699Z,35.78
2023-03-01T04:26:47.570Z,35.55
2023-03-01T04:28:53.244Z,33.75
2023-03-01T04:30:59.856Z,35.63
2023-03-01T04:33:07.052Z,43.63
2023-03-01T04:35:12.725Z,34.53
2023-03-01T04:37:18.022Z,39.45
2023-03-01T04:39:26.061Z,34.45
2023-03-01T04:41:31.914Z,30.90
2023-03-01T04:43:37.967Z,30.73
2023-03-01T04:45:42.947Z,35.28
2023-03-01T04:47:49.991Z,35.55
2023-03-01T04:49:55.947Z,39.35
2023-03-01T04:52:05.585Z,39.75
2023-03-01T04:54:11.340Z,36.42
2023-03-01T04:56:19.872Z,34.58
2023-03-01T04:58:25.060Z,39.15
2023-03-01T05:00:30.249Z,34.42
2023-03-01T05:02:36.251Z,36.00
2023-03-01T05:04:41.170Z,34.58
2023-03-01T05:06:48.252Z,40.47
2023-03-01T05:08:53.456Z,37.08
2023-03-01T05:10:58.345Z,36.55
2023-03-01T05:13:08.266Z,36.53
2023-03-01T05:15:14.237Z,41.50
2023-03-01T05:17:19.329Z,36.35
2023-03-01T05:19:25.131Z,38.40
2023-03-01T05:21:30.151Z,38.65
2023-03-01T05:23:37.366Z,37.88
2023-03-01T05:25:44.130Z,40.17
2023-03-01T05:27:49.371Z,41.35
2023-03-01T05:29:56.853Z,44.38
2023-03-01T05:32:04.417Z,41.45
2023-03-01T05:34:09.343Z,41.80
2023-03-01T05:36:15.261Z,42.50
2023-03-01T05:38:20.868Z,49.88
2023-03-01T05:40:27.909Z,42.55
2023-03-01T05:42:33.237Z,44.80
2023-03-01T05:44:38.562Z,41.15
2023-03-01T05:46:46.059Z,40.88
2023-03-01T05:48:51.565Z,45.75
2023-03-01T05:50:56.445Z,41.85
2023-03-01T05:53:05.431Z,38.90
2023-03-01T05:55:12.354Z,40.72
2023-03-01T05:57:17.590Z,37.75
2023-03-01T05:59:22.493Z,40.38
2023-03-01T06:01:28.067Z,38.40
2023-03-01T06:03:35.955Z,42.08
2023-03-01T06:05:40.921Z,39.80
2023-03-01T06:07:46.724Z,43.17
2023-03-01T06:09:51.637Z,49.20
2023-03-01T06:12:00.931Z,38.47
2023-03-01T06:14:08.106Z,45.17
2023-03-01T06:16:14.770Z,46.90
2023-03-01T06:18:19.715Z,44.15
2023-03-01T06:20:30.209Z,50.92
2023-03-01T06:22:35.545Z,46.20
2023-03-01T06:24:41.183Z,53.38
2023-03-01T06:26:46.465Z,46.28
2023-03-01T06:28:53.119Z,55.00
2023-03-01T06:30:58.243Z,50.20
2023-03-01T06:33:04.297Z,52.15
2023-03-01T06:35:11.915Z,47.00
2023-03-01T06:37:19.945Z,47.28
2023-03-01T06:39:27.346Z,49.67
2023-03-01T06:41:34.250Z,50.72
2023-03-01T06:43:39.559Z,48.75
2023-03-01T06:45:45.044Z,50.78
2023-03-01T06:47:50.776Z,53.70
2023-03-01T06:49:56.366Z,49.60
2023-03-01T06:52:01.307Z,62.58
2023-03-01T06:54:09.296Z,62.90
2023-03-01T06:56:14.315Z,58.83
2023-03-01T06:58:19.222Z,53.45
2023-03-01T07:00:26.761Z,52.13
2023-03-01T07:02:34.931Z,49.42
2023-03-01T07:04:39.813Z,53.75
2023-03-01T07:06:45.758Z,48.78
2023-03-01T07:08:51.509Z,49.28
2023-03-01T07:11:03.387Z,48.45
2023-03-01T07:13:10.943Z,46.03
2023-03-01T07:15:16.228Z,45.70
2023-03-01T07:17:22.197Z,42.70
2023-03-01T07:19:27.422Z,44.42
2023-03-01T07:21:32.813Z,46.25
2023-03-01T07:23:39.149Z,46.47
2023-03-01T07:25:44.084Z,39.33
2023-03-01T07:27:56.974Z,43.55
2023-03-01T07:30:02.690Z,39.90
2023-03-01T07:32:08.943Z,41.50
2023-03-01T07:34:17.193Z,40.50
2023-03-01T07:36:22.090Z,39.97
2023-03-01T07:38:27.662Z,42.90
2023-03-01T07:40:32.617Z,38.15
2023-03-01T07:42:38.925Z,37.78
2023-03-01T07:44:46.505Z,40.33
2023-03-01T07:46:57.360Z,37.88
2023-03-01T07:49:06.414Z,36.10
2023-03-01T07:51:11.899Z,40.10
2023-03-01T07:53:17.130Z,34.58
2023-03-01T07:55:22.030Z,38.92
2023-03-01T07:57:28.410Z,43.90
2023-03-01T07:59:34.011Z,38.50
2023-03-01T08:01:41.583Z,39.50
2023-03-01T08:03:49.123Z,38.20
2023-03-01T08:05:54.018Z,34.83
2023-03-01T08:08:02.047Z,36.63
2023-03-01T08:10:07.941Z,37.40
2023-03-01T08:12:13.226Z,34.17
2023-03-01T08:14:18.142Z,42.10
2023-03-01T08:16:23.756Z,37.80
2023-03-01T08:18:31.675Z,40.92
2023-03-01T08:20:36.605Z,34.50
2023-03-01T08:22:41.505Z,36.05
2023-03-01T08:24:46.436Z,38.10
2023-03-01T08:26:51.956Z,34.58
2023-03-01T08:28:57.311Z,35.97
2023-03-01T08:31:02.251Z,34.05
2023-03-01T08:33:07.742Z,31.02
2023-03-01T08:35:15.402Z,35.60
2023-03-01T08:37:20.684Z,36.95
2023-03-01T08:39:26.014Z,33.58
2023-03-01T08:41:31.897Z,31.77
2023-03-01T08:43:37.322Z,31.48
2023-03-01T08:45:42.231Z,35.40
2023-03-01T08:47:47.922Z,38.47
2023-03-01T08:49:54.080Z,32.83
2023-03-01T08:52:02.216Z,33.38
2023-03-01T08:54:07.785Z,28.52
2023-03-01T08:56:14.064Z,32.47
2023-03-01T08:58:19.040Z,30.67
2023-03-01T09:00:26.018Z,29.40
2023-03-01T09:02:30.942Z,31.23
2023-03-01T09:04:36.406Z,28.42
2023-03-01T09:06:41.542Z,26.98
2023-03-01T09:08:51.950Z,27.00
2023-03-01T09:10:56.887Z,32.58
2023-03-01T09:13:02.627Z,26.20
2023-03-01T09:15:09.126Z,27.98
2023-03-01T09:17:14.591Z,25.67
2023-03-01T09:19:19.518Z,28.00
2023-03-01T09:21:39.682Z,24.70
2023-03-01T09:23:50.074Z,22.35
2023-03-01T09:25:56.094Z,22.42
2023-03-01T09:28:01.012Z,21.88
2023-03-01T09:30:06.969Z,25.98
2023-03-01T09:32:12.448Z,25.50
2023-03-01T09:34:20.285Z,24.25
2023-03-01T09:36:27.769Z,23.73
2023-03-01T09:38:33.589Z,21.10
2023-03-01T09:40:47.514Z,23.52
2023-03-01T09:43:05.084Z,20.60
2023-03-01T09:45:18.794Z,20.50
2023-03-01T09:47:27.987Z,27.38
2023-03-01T09:49:36.745Z,26.02
2023-03-01T09:51:41.962Z,21.55
2023-03-01T09:53:47.368Z,25.05
2023-03-01T09:56:03.023Z,23.05
2023-03-01T09:58:36.257Z,20.55
2023-03-01T10:00:46.848Z,25.92
2023-03-01T10:03:00.811Z,23.27
2023-03-01T10:05:22.816Z,27.30
2023-03-01T10:07:43.411Z,22.17
2023-03-01T10:09:50.217Z,23.42
2023-03-01T10:11:59.320Z,23.77
2023-03-01T10:14:09.878Z,24.83
2023-03-01T10:16:21.844Z,22.48
2023-03-01T10:18:30.432Z,25.33
2023-03-01T10:20:47.447Z,22.15
2023-03-01T10:22:56.134Z,21.63
2023-03-01T10:25:06.663Z,24.83
2023-03-01T10:27:23.185Z,23.30
2023-03-01T10:29:34.780Z,22.48
2023-03-01T10:31:47.407Z,22.40
2023-03-01T10:33:55.906Z,22.67
2023-03-01T10:36:01.142Z,19.38
2023-03-01T10:38:11.727Z,23.10
2023-03-01T10:40:17.106Z,23.65
2023-03-01T10:42:31.964Z,24.92
2023-03-01T10:44:51.118Z,20.85
2023-03-01T10:47:05.100Z,20.38
2023-03-01T10:49:18.135Z,20.08
2023-03-01T10:53:32.648Z,22.15
2023-03-01T10:55:40.962Z,30.50
2023-03-01T10:57:48.455Z,23.17
2023-03-01T11:00:24.936Z,21.17
2023-03-01T11:02:34.342Z,20.25
2023-03-01T11:04:39.971Z,21.38
2023-03-01T11:06:45.973Z,22.92
2023-03-01T11:08:53.925Z,21.27
2023-03-01T11:11:25.710Z,18.02
2023-03-01T11:13:33.925Z,22.40
2023-03-01T11:15:39.702Z,25.25
2023-03-01T11:17:53.846Z,21.42
2023-03-01T11:20:24.684Z,23.05
2023-03-01T11:22:29.702Z,19.58
2023-03-01T11:24:43.707Z,21.33
2023-03-01T11:26:54.255Z,23.58
2023-03-01T11:29:10.265Z,20.67
2023-03-01T11:31:17.858Z,22.20
2023-03-01T11:33:37.337Z,22.75
2023-03-01T11:35:51.540Z,20.42
2023-03-01T11:38:08.748Z,19.17
2023-03-01T11:40:26.383Z,19.48
2023-03-01T11:42:53.688Z,24.38
2023-03-01T11:45:06.075Z,20.83
2023-03-01T11:47:36.738Z,21.97
2023-03-01T11:50:17.215Z,22.40
2023-03-01T11:52:35.067Z,19.75
2023-03-01T11:54:59.536Z,19.15
2023-03-01T11:57:11.401Z,22.75
2023-03-01T12:00:06.135Z,22.42
2023-03-01T12:02:43.995Z,20.30
2023-03-01T12:05:22.489Z,20.85
2023-03-01T12:07:41.089Z,19.17
2023-03-01T12:10:21.663Z,27.15
2023-03-01T12:12:42.346Z,21.08
2023-03-01T12:15:15.506Z,24.48
2023-03-01T12:17:38.711Z,23.23
2023-03-01T12:20:20.882Z,20.35
2023-03-01T12:22:35.282Z,23.52
2023-03-01T12:25:24.812Z,21.00
2023-03-01T12:28:20.835Z,20.20
2023-03-01T12:30:46.634Z,21.38
2023-03-01T12:33:08.790Z,25.08
2023-03-01T12:36:08.078Z,20.55
2023-03-01T12:38:37.564Z,22.70
2023-03-01T12:41:07.410Z,20.45
2023-03-01T12:43:26.991Z,21.73
2023-03-01T12:46:05.414Z,22.33
2023-03-01T12:48:31.112Z,21.38
2023-03-01T12:50:44.865Z,22.48
2023-03-01T12:52:54.917Z,22.63
2023-03-01T12:55:04.622Z,22.77
2023-03-01T12:57:18.020Z,20.10
2023-03-01T12:59:30.656Z,23.20
2023-03-01T13:01:51.451Z,20.42
2023-03-01T13:04:15.536Z,18.63
2023-03-01T13:06:38.129Z,17.98
2023-03-01T13:08:54.159Z,18.75
2023-03-01T13:11:02.415Z,19.80
2023-03-01T13:13:22.021Z,18.50
2023-03-01T13:15:34.180Z,16.00
2023-03-01T13:17:49.312Z,17.10
2023-03-01T13:20:01.441Z,20.40
2023-03-01T13:22:33.479Z,14.55
2023-03-01T13:24:44.122Z,19.48
2023-03-01T13:27:30.540Z,16.02
2023-03-01T13:29:49.117Z,19.83
2023-03-01T13:32:05.914Z,19.33
2023-03-01T13:34:49.365Z,17.05
2023-03-01T13:36:54.344Z,18.73
2023-03-01T13:39:01.875Z,16.00
2023-03-01T13:41:07.915Z,17.20
2023-03-01T13:43:34.184Z,19.40
2023-03-01T13:45:43.010Z,19.10
2023-03-01T13:47:50.782Z,16.17
2023-03-01T13:50:01.939Z,19.38
2023-03-01T13:52:09.325Z,19.10
2023-03-01T13:54:17.915Z,18.67
2023-03-01T13:56:27.949Z,18.63
2023-03-01T13:58:36.987Z,20.85
2023-03-01T14:00:43.672Z,16.35
2023-03-01T14:02:51.792Z,18.75
2023-03-01T14:05:04.978Z,18.55
2023-03-01T14:07:15.929Z,19.30
2023-03-01T14:09:25.091Z,19.63
2023-03-01T14:12:17.515Z,21.13
2023-03-01T14:14:46.714Z,17.85
2023-03-01T14:17:00.263Z,17.33
2023-03-01T14:19:32.650Z,17.08
2023-03-01T14:21:41.128Z,19.13
2023-03-01T14:23:47.812Z,17.98
2023-03-01T14:25:56.093Z,17.05
2023-03-01T14:28:06.744Z,18.58
2023-03-01T14:30:22.816Z,16.63
2023-03-01T14:32:33.481Z,18.20
2023-03-01T14:34:38.745Z,16.25
2023-03-01T14:36:46.245Z,18.23
2023-03-01T14:38:51.754Z,17.50
2023-03-01T14:41:03.121Z,17.13
2023-03-01T14:43:15.742Z,18.73
2023-03-01T14:45:21.544Z,18.65
2023-03-01T14:47:31.990Z,16.30
2023-03-01T14:49:38.073Z,16.63
2023-03-01T14:51:53.223Z,17.75
2023-03-01T14:53:58.901Z,16.77
2023-03-01T14:56:06.213Z,18.27
2023-03-01T14:58:18.230Z,17.38
2023-03-01T15:00:26.724Z,21.05
2023-03-01T15:02:34.062Z,17.17
2023-03-01T15:04:39.467Z,16.60
2023-03-01T15:06:47.856Z,17.25
2023-03-01T15:08:57.884Z,17.25
2023-03-01T15:11:09.862Z,21.15
2023-03-01T15:13:16.015Z,17.52
2023-03-01T15:15:39.061Z,18.13
2023-03-01T15:17:44.016Z,16.55
2023-03-01T15:19:50.812Z,16.10
2023-03-01T15:22:00.158Z,18.92
2023-03-01T15:24:20.544Z,17.75
2023-03-01T15:26:30.480Z,17.55
2023-03-01T15:28:41.023Z,15.20
2023-03-01T15:30:46.513Z,16.10
2023-03-01T15:32:51.443Z,18.05
2023-03-01T15:34:56.474Z,16.35
2023-03-01T15:37:08.955Z,16.70
2023-03-01T15:39:45.124Z,17.92
2023-03-01T15:41:52.635Z,18.92
2023-03-01T15:43:59.067Z,17.67
2023-03-01T15:46:05.392Z,20.55
2023-03-01T15:48:26.596Z,16.10
2023-03-01T15:50:35.731Z,16.90
2023-03-01T15:52:45.892Z,17.88
2023-03-01T15:54:50.813Z,17.15
2023-03-01T15:56:56.243Z,17.90
2023-03-01T15:59:08.246Z,15.90
2023-03-01T16:01:16.833Z,16.77
2023-03-01T16:03:22.952Z,18.27
2023-03-01T16:05:32.194Z,18.60
2023-03-01T16:07:40.930Z,19.52
2023-03-01T16:09:48.448Z,18.38
2023-03-01T16:11:53.901Z,20.15
2023-03-01T16:13:59.001Z,15.98
2023-03-01T16:16:04.062Z,17.67
2023-03-01T16:18:11.970Z,16.60
2023-03-01T16:20:28.048Z,17.17
2023-03-01T16:22:33.652Z,15.90
2023-03-01T16:24:39.187Z,21.38
2023-03-01T16:26:46.679Z,17.25
2023-03-01T16:28:51.687Z,19.15
2023-03-01T16:30:56.685Z,20.52
2023-03-01T16:33:02.108Z,19.70
2023-03-01T16:35:08.548Z,20.27
2023-03-01T16:37:13.954Z,20.15
2023-03-01T16:39:18.864Z,19.13
2023-03-01T16:41:26.388Z,19.20
2023-03-01T16:43:34.067Z,22.45
2023-03-01T16:45:41.701Z,21.10
2023-03-01T16:47:47.046Z,24.60
2023-03-01T16:49:55.420Z,19.35
2023-03-01T16:52:00.595Z,19.30
2023-03-01T16:54:05.811Z,21.30
2023-03-01T16:56:13.490Z,20.73
2023-03-01T16:58:18.796Z,21.98
2023-03-01T17:00:27.176Z,20.25
2023-03-01T17:02:32.112Z,25.98
2023-03-01T17:04:37.349Z,23.38
2023-03-01T17:06:42.485Z,25.80
2023-03-01T17:08:47.577Z,24.52
2023-03-01T17:10:52.482Z,28.02
2023-03-01T17:12:57.355Z,25.70
2023-03-01T17:15:02.503Z,25.83
2023-03-01T17:17:10.348Z,28.13
2023-03-01T17:19:18.544Z,25.35
2023-03-01T17:21:23.971Z,27.35
2023-03-01T17:23:29.661Z,29.83
2023-03-01T17:25:34.556Z,25.20
2023-03-01T17:27:40.812Z,26.38
2023-03-01T17:29:45.781Z,24.92
2023-03-01T17:31:51.058Z,23.30
2023-03-01T17:34:01.200Z,27.17
2023-03-01T17:36:08.239Z,29.38
2023-03-01T17:38:13.140Z,26.63
2023-03-01T17:40:18.666Z,25.58
2023-03-01T17:42:23.591Z,25.70
2023-03-01T17:44:29.402Z,28.58
2023-03-01T17:46:34.853Z,27.65
2023-03-01T17:48:40.485Z,28.25
2023-03-01T17:50:48.229Z,27.00
2023-03-01T17:52:53.433Z,28.35
2023-03-01T17:54:59.029Z,28.92
2023-03-01T17:57:04.348Z,28.23
2023-03-01T17:59:09.423Z,27.25
2023-03-01T18:01:19.087Z,24.00
2023-03-01T18:03:24.398Z,27.88
2023-03-01T18:05:30.299Z,30.27
2023-03-01T18:07:38.559Z,34.63
2023-03-01T18:09:43.436Z,33.03
2023-03-01T18:11:48.852Z,29.42
2023-03-01T18:13:54.656Z,28.90
2023-03-01T18:16:01.870Z,30.33
2023-03-01T18:18:07.107Z,29.95
2023-03-01T18:20:15.501Z,31.38
2023-03-01T18:22:21.245Z,33.25
2023-03-01T18:24:28.759Z,31.85
2023-03-01T18:26:34.157Z,31.35
2023-03-01T18:28:40.315Z,31.85
2023-03-01T18:30:45.385Z,33.25
2023-03-01T18:32:56.142Z,31.05
2023-03-01T18:35:01.366Z,30.75
2023-03-01T18:37:09.525Z,29.75
2023-03-01T18:39:17.745Z,31.48
2023-03-01T18:41:27.153Z,29.92
2023-03-01T18:43:32.854Z,28.73
2023-03-01T18:45:38.274Z,27.52
2023-03-01T18:47:43.465Z,30.00
2023-03-01T18:49:48.403Z,31.08
2023-03-01T18:51:53.382Z,35.17
2023-03-01T18:53:58.903Z,30.13
2023-03-01T18:56:04.028Z,34.50
2023-03-01T18:58:11.560Z,31.67
2023-03-01T19:00:18.972Z,35.55
2023-03-01T19:02:24.408Z,34.35
2023-03-01T19:04:29.300Z,32.63
2023-03-01T19:06:36.538Z,37.20
2023-03-01T19:08:44.308Z,36.47
2023-03-01T19:10:49.248Z,35.65
2023-03-01T19:12:54.161Z,31.25
2023-03-01T19:15:01.794Z,34.65
2023-03-01T19:17:06.692Z,33.67
2023-03-01T19:19:11.646Z,28.98
2023-03-01T19:21:16.548Z,29.75
2023-03-01T19:23:21.399Z,29.30
2023-03-01T19:25:26.833Z,32.97
2023-03-01T19:27:31.738Z,31.42
2023-03-01T19:29:36.655Z,29.02
2023-03-01T19:31:44.134Z,32.75
2023-03-01T19:33:50.208Z,32.50
2023-03-01T19:35:56.918Z,30.52
2023-03-01T19:38:01.866Z,36.08
2023-03-01T19:40:08.658Z,29.90
2023-03-01T19:42:13.729Z,30.10
2023-03-01T19:44:18.881Z,29.85
2023-03-01T19:46:24.068Z,31.50
2023-03-01T19:48:32.278Z,31.95
2023-03-01T19:50:38.397Z,25.27
2023-03-01T19:52:43.313Z,28.38
2023-03-01T19:54:50.436Z,29.35
2023-03-01T19:56:55.867Z,27.08
2023-03-01T19:59:04.459Z,31.80
2023-03-01T20:01:18.491Z,28.75
2023-03-01T20:03:23.384Z,30.42
2023-03-01T20:05:31.104Z,28.23
2023-03-01T20:07:36.090Z,28.40
2023-03-01T20:09:41.678Z,29.05
2023-03-01T20:11:46.592Z,28.67
2023-03-01T20:13:51.484Z,26.80
2023-03-01T20:15:58.995Z,29.52
2023-03-01T20:18:04.085Z,27.65
2023-03-01T20:20:10.393Z,28.65
2023-03-01T20:22:18.354Z,29.63
2023-03-01T20:24:23.283Z,28.60
2023-03-01T20:26:29.256Z,26.63
2023-03-01T20:28:34.646Z,27.25
2023-03-01T20:30:41.174Z,25.63
2023-03-01T20:32:46.306Z,25.23
2023-03-01T20:34:52.204Z,26.77
2023-03-01T20:36:57.161Z,25.90
2023-03-01T20:39:04.677Z,28.90
2023-03-01T20:41:11.681Z,29.35
2023-03-01T20:43:16.634Z,30.95
2023-03-01T20:45:21.616Z,27.70
2023-03-01T20:47:26.512Z,28.38
2023-03-01T20:49:31.411Z,24.20
2023-03-01T20:51:36.804Z,30.40
2023-03-01T20:53:41.852Z,26.95
2023-03-01T20:55:49.511Z,25.38
2023-03-01T20:57:54.406Z,25.67
2023-03-01T20:59:59.570Z,24.90
2023-03-01T21:02:04.480Z,24.38
2023-03-01T21:04:09.984Z,25.88
2023-03-01T21:06:15.875Z,32.28
2023-03-01T21:08:20.770Z,27.23
2023-03-01T21:10:25.733Z,27.40
2023-03-01T21:12:33.754Z,25.15
2023-03-01T21:14:42.793Z,25.40
2023-03-01T21:16:48.382Z,27.55
2023-03-01T21:18:53.749Z,24.52
2023-03-01T21:21:01.466Z,25.45
2023-03-01T21:23:06.375Z,24.20
2023-03-01T21:25:12.200Z,25.55
2023-03-01T21:27:17.292Z,24.17
2023-03-01T21:29:25.413Z,27.40
2023-03-01T21:31:33.984Z,27.10
2023-03-01T21:33:39.525Z,23.83
2023-03-01T21:35:44.395Z,29.30
2023-03-01T21:37:49.271Z,26.40
2023-03-01T21:39:54.167Z,26.98
2023-03-01T21:42:00.731Z,28.55
2023-03-01T21:44:07.756Z,28.17
2023-03-01T21:46:18.525Z,26.58
2023-03-01T21:48:23.457Z,30.00
2023-03-01T21:50:28.350Z,24.80
2023-03-01T21:52:33.683Z,27.25
2023-03-01T21:54:38.554Z,30.58
2023-03-01T21:56:44.952Z,30.98
2023-03-01T21:58:50.711Z,26.52
2023-03-01T22:00:55.732Z,29.90
2023-03-01T22:03:03.587Z,26.25
2023-03-01T22:05:10.505Z,27.95
2023-03-01T22:07:15.372Z,28.52
2023-03-01T22:09:22.950Z,28.25
2023-03-01T22:11:29.241Z,26.95
2023-03-01T22:13:34.434Z,28.67
2023-03-01T22:15:44.133Z,29.23
2023-03-01T22:17:49.348Z,29.42
2023-03-01T22:19:56.906Z,30.30
2023-03-01T22:22:01.831Z,29.23
2023-03-01T22:24:07.942Z,27.30
2023-03-01T22:26:26.430Z,27.60
2023-03-01T22:28:32.342Z,29.90
2023-03-01T22:30:37.272Z,30.10
2023-03-01T22:32:43.011Z,31.52
2023-03-01T22:34:47.929Z,28.67
2023-03-01T22:36:55.442Z,28.40
2023-03-01T22:39:01.982Z,28.02
2023-03-01T22:41:09.049Z,28.58
2023-03-01T22:43:14.755Z,24.83
2023-03-01T22:45:19.896Z,32.08
2023-03-01T22:47:24.832Z,26.67
2023-03-01T22:49:29.804Z,25.58
2023-03-01T22:51:38.437Z,33.13
2023-03-01T22:53:46.660Z,31.65
2023-03-01T22:55:51.579Z,27.70
2023-03-01T22:57:56.748Z,28.27
2023-03-01T23:00:01.946Z,30.35
2023-03-01T23:02:07.015Z,32.20
2023-03-01T23:04:12.450Z,32.90
2023-03-01T23:06:18.795Z,31.55
2023-03-01T23:08:23.976Z,25.92
2023-03-01T23:10:31.459Z,29.60
2023-03-01T23:12:36.730Z,29.40
2023-03-01T23:14:42.091Z,26.50
2023-03-01T23:16:47.099Z,30.15
2023-03-01T23:18:52.053Z,31.95
2023-03-01T23:20:56.966Z,32.08
2023-03-01T23:23:02.089Z,29.33
2023-03-01T23:25:11.201Z,28.38
2023-03-01T23:27:19.069Z,30.33
2023-03-01T23:29:25.541Z,31.40
2023-03-01T23:31:30.486Z,28.58
2023-03-01T23:33:37.865Z,30.08
2023-03-01T23:35:42.759Z,28.05
2023-03-01T23:37:47.934Z,28.63
2023-03-01T23:39:53.077Z,30.05
2023-03-01T23:41:58.524Z,32.22
2023-03-01T23:44:08.219Z,33.03
2023-03-01T23:46:15.236Z,32.75
2023-03-01T23:48:20.610Z,32.28
2023-03-01T23:50:25.645Z,32.90
2023-03-01T23:52:30.615Z,32.03
2023-03-01T23:54:35.686Z,32.08
2023-03-01T23:56:43.372Z,29.95
2023-03-01T23:58:50.506Z,30.73
